Time;durP1;ratioP1;P1;durP2;ratioP2;P2;SDS_P1;SDS_P2;PMS_P1;PMS_P2;Temp;Humidity;BMP_temperature;BMP_pressure;BME280_temperature;BME280_humidity;BME280_pressure;Samples;Min_cycle;Max_cycle;Signal;HPM_P1;HPM_P2
2023/10/09 00:01:27;;;;;;;16.02;14.32;;;15.60;99.90;;;;;;5059516;28;20415;-74
2023/10/09 00:03:55;;;;;;;16.20;14.50;;;15.50;99.90;;;;;;5062796;28;20434;-74
2023/10/09 00:06:36;;;;;;;17.17;14.65;;;15.60;99.90;;;;;;5059813;28;20439;-74
2023/10/09 00:09:30;;;;;;;17.48;14.30;;;15.50;99.90;;;;;;5061052;28;20443;-74
2023/10/09 00:11:57;;;;;;;17.17;14.02;;;15.50;99.90;;;;;;5058497;28;20408;-74
2023/10/09 00:14:24;;;;;;;17.05;14.10;;;15.50;99.90;;;;;;5061767;28;20905;-74
2023/10/09 00:16:58;;;;;;;15.80;13.57;;;15.50;99.90;;;;;;5062604;28;20407;-74
2023/10/09 00:19:30;;;;;;;16.00;13.75;;;15.50;99.90;;;;;;5063031;28;20535;-73
2023/10/09 00:21:58;;;;;;;15.50;13.80;;;15.50;99.90;;;;;;5060389;28;20472;-74
2023/10/09 00:24:25;;;;;;;15.55;13.80;;;15.50;99.90;;;;;;5063965;28;20872;-75
2023/10/09 00:26:55;;;;;;;16.30;13.23;;;15.50;99.90;;;;;;5066301;28;20407;-75
2023/10/09 00:29:22;;;;;;;15.00;12.40;;;15.50;99.90;;;;;;5065894;28;20801;-75
2023/10/09 00:31:55;;;;;;;15.88;13.65;;;15.50;99.90;;;;;;5065417;28;20447;-75
2023/10/09 00:34:26;;;;;;;15.60;12.90;;;15.50;99.90;;;;;;5065496;28;20435;-75
2023/10/09 00:36:53;;;;;;;15.07;13.10;;;15.50;99.90;;;;;;5065017;28;20439;-75
2023/10/09 00:39:42;;;;;;;14.57;13.07;;;15.50;99.90;;;;;;5063646;28;20453;-75
2023/10/09 00:42:12;;;;;;;18.90;13.90;;;15.40;99.90;;;;;;5063096;28;20874;-75
2023/10/09 00:44:39;;;;;;;14.07;12.63;;;15.40;99.90;;;;;;5066791;28;20403;-75
2023/10/09 00:47:20;;;;;;;14.97;12.73;;;15.40;99.90;;;;;;5067561;28;20526;-75
2023/10/09 00:49:49;;;;;;;15.27;13.63;;;15.40;99.90;;;;;;5064342;28;20408;-75
2023/10/09 00:52:24;;;;;;;13.18;11.85;;;15.30;99.90;;;;;;5065049;28;20504;-75
2023/10/09 00:54:51;;;;;;;14.35;12.93;;;15.30;99.90;;;;;;5065982;28;20746;-75
2023/10/09 00:57:24;;;;;;;16.20;13.13;;;15.30;99.90;;;;;;5065950;28;20778;-75
2023/10/09 00:59:59;;;;;;;14.73;12.00;;;15.20;99.90;;;;;;5065046;28;20455;-75
2023/10/09 01:02:36;;;;;;;16.05;12.20;;;15.20;99.90;;;;;;5064700;28;20590;-75
2023/10/09 01:05:19;;;;;;;13.98;11.98;;;15.20;99.90;;;;;;5066077;28;20767;-75
2023/10/09 01:07:47;;;;;;;14.27;12.40;;;15.20;99.90;;;;;;5063991;28;20442;-75
2023/10/09 01:10:16;;;;;;;13.40;11.60;;;15.20;99.90;;;;;;5063894;28;20430;-75
2023/10/09 01:12:44;;;;;;;14.75;12.30;;;15.10;99.90;;;;;;5065745;28;20431;-76
2023/10/09 01:15:35;;;;;;;14.60;12.63;;;15.10;99.90;;;;;;5066491;28;20435;-73
2023/10/09 01:18:02;;;;;;;14.35;12.23;;;15.10;99.90;;;;;;5059727;28;20874;-73
2023/10/09 01:20:36;;;;;;;13.00;11.60;;;15.10;99.90;;;;;;5064322;28;21095;-74
2023/10/09 01:23:07;;;;;;;12.30;11.10;;;15.10;99.90;;;;;;5063734;28;20431;-74
2023/10/09 01:25:42;;;;;;;13.02;11.10;;;15.10;99.90;;;;;;5062942;28;20450;-74
2023/10/09 01:28:09;;;;;;;13.45;11.30;;;15.10;99.90;;;;;;5065570;28;20423;-74
2023/10/09 01:30:41;;;;;;;13.10;11.02;;;15.10;99.90;;;;;;5064803;28;20929;-74
2023/10/09 01:33:15;;;;;;;14.80;11.77;;;15.10;99.90;;;;;;5065487;28;20870;-74
2023/10/09 01:35:48;;;;;;;14.38;11.40;;;15.10;99.90;;;;;;5062104;28;20754;-74
2023/10/09 01:38:17;;;;;;;12.80;10.48;;;15.10;99.90;;;;;;5063383;28;20483;-73
2023/10/09 01:40:44;;;;;;;13.85;11.10;;;15.10;99.90;;;;;;5060998;28;20882;-74
2023/10/09 01:43:12;;;;;;;13.43;11.25;;;15.10;99.90;;;;;;5064903;28;20411;-74
2023/10/09 01:45:43;;;;;;;14.38;11.88;;;15.10;99.90;;;;;;5065421;28;20412;-74
2023/10/09 01:48:11;;;;;;;13.65;11.30;;;15.10;99.90;;;;;;5063951;28;20408;-73
2023/10/09 01:50:41;;;;;;;12.88;11.00;;;15.10;99.90;;;;;;5059668;28;20834;-74
2023/10/09 01:53:08;;;;;;;11.55;10.32;;;15.00;99.90;;;;;;5060423;28;20492;-74
2023/10/09 01:55:39;;;;;;;11.57;10.35;;;15.00;99.90;;;;;;5062577;28;20541;-74
2023/10/09 01:58:06;;;;;;;13.20;10.65;;;15.00;99.90;;;;;;5066025;28;20422;-74
2023/10/09 02:00:41;;;;;;;11.68;10.50;;;15.00;99.90;;;;;;5056070;28;20438;-74
2023/10/09 02:03:12;;;;;;;12.80;10.20;;;15.00;99.90;;;;;;5061167;28;20545;-76
2023/10/09 02:05:39;;;;;;;13.50;10.13;;;15.00;99.90;;;;;;5062278;28;20439;-75
2023/10/09 02:08:10;;;;;;;11.40;10.30;;;15.00;99.90;;;;;;5064367;28;20508;-74
2023/10/09 02:10:39;;;;;;;11.20;10.10;;;14.90;99.90;;;;;;5060229;28;20423;-74
2023/10/09 02:13:09;;;;;;;11.32;9.52;;;14.90;99.90;;;;;;5067961;28;20808;-74
2023/10/09 02:15:53;;;;;;;11.60;10.25;;;14.90;99.90;;;;;;5060400;28;20843;-74
2023/10/09 02:18:27;;;;;;;11.35;9.73;;;15.00;99.90;;;;;;5063281;28;20422;-74
2023/10/09 02:21:12;;;;;;;11.20;9.48;;;15.00;99.90;;;;;;5061564;28;20482;-74
2023/10/09 02:23:46;;;;;;;12.73;9.88;;;15.00;99.90;;;;;;5058283;28;20423;-75
2023/10/09 02:26:19;;;;;;;12.93;9.60;;;15.00;99.90;;;;;;5063098;28;20424;-74
2023/10/09 02:28:52;;;;;;;10.98;9.30;;;15.00;99.90;;;;;;5063188;28;20431;-74
2023/10/09 02:31:21;;;;;;;9.82;8.70;;;15.00;99.90;;;;;;5063288;28;20434;-74
2023/10/09 02:33:51;;;;;;;10.50;8.77;;;15.00;99.90;;;;;;5062780;28;20871;-74
2023/10/09 02:36:18;;;;;;;10.73;9.52;;;15.00;99.90;;;;;;5062418;28;20510;-74
2023/10/09 02:38:48;;;;;;;9.50;8.60;;;15.00;99.90;;;;;;5062749;28;20898;-74
2023/10/09 02:41:22;;;;;;;11.43;9.70;;;15.10;99.90;;;;;;5061998;28;20455;-74
2023/10/09 02:43:51;;;;;;;10.90;8.88;;;15.10;99.90;;;;;;5064596;28;20911;-73
2023/10/09 02:46:20;;;;;;;10.40;9.40;;;15.10;99.90;;;;;;5062254;28;20423;-74
2023/10/09 02:48:50;;;;;;;11.80;9.30;;;15.10;99.90;;;;;;5062844;28;20524;-74
2023/10/09 02:51:31;;;;;;;12.00;9.10;;;15.10;99.90;;;;;;5062065;28;20905;-74
2023/10/09 02:54:07;;;;;;;11.05;8.88;;;15.20;99.90;;;;;;5060861;28;20503;-74
2023/10/09 02:56:37;;;;;;;10.60;9.20;;;15.20;99.90;;;;;;5062763;28;20424;-74
2023/10/09 02:59:06;;;;;;;12.60;10.07;;;15.20;99.90;;;;;;5062635;28;20496;-74
2023/10/09 03:01:35;;;;;;;10.40;9.30;;;15.20;99.90;;;;;;5060583;28;20411;-74
2023/10/09 03:04:02;;;;;;;10.38;8.90;;;15.20;99.90;;;;;;5064716;28;20434;-74
2023/10/09 03:06:32;;;;;;;10.03;8.77;;;15.20;99.90;;;;;;5064190;28;20825;-74
2023/10/09 03:08:59;;;;;;;10.07;9.00;;;15.20;99.90;;;;;;5062449;28;20431;-74
2023/10/09 03:11:27;;;;;;;10.43;9.20;;;15.20;99.90;;;;;;5062668;28;20504;-74
2023/10/09 03:13:55;;;;;;;10.52;9.23;;;15.20;99.90;;;;;;5065621;28;20463;-74
2023/10/09 03:16:22;;;;;;;11.30;9.20;;;15.20;99.90;;;;;;5063236;28;20446;-74
2023/10/09 03:18:52;;;;;;;10.95;8.85;;;15.10;99.90;;;;;;5062945;28;20420;-74
2023/10/09 03:21:19;;;;;;;12.40;9.20;;;15.20;99.90;;;;;;5062059;28;20494;-74
2023/10/09 03:23:49;;;;;;;11.82;9.25;;;15.20;99.90;;;;;;5060044;28;20937;-74
2023/10/09 03:26:17;;;;;;;10.27;8.75;;;15.20;99.90;;;;;;5061895;28;20458;-74
2023/10/09 03:28:45;;;;;;;10.07;8.48;;;15.20;99.90;;;;;;5062452;28;20881;-73
2023/10/09 03:31:13;;;;;;;9.45;8.00;;;15.20;99.90;;;;;;5061553;28;20459;-74
2023/10/09 03:33:40;;;;;;;9.55;8.30;;;15.20;99.90;;;;;;5063139;28;20754;-73
2023/10/09 03:36:09;;;;;;;8.90;8.00;;;15.20;99.90;;;;;;5063426;28;20515;-73
2023/10/09 03:38:36;;;;;;;9.73;8.73;;;15.20;99.90;;;;;;5061253;28;20548;-73
2023/10/09 03:41:05;;;;;;;10.70;8.90;;;15.20;99.90;;;;;;5059466;28;21076;-73
2023/10/09 03:43:35;;;;;;;10.67;9.57;;;15.20;99.90;;;;;;5062221;28;20437;-74
2023/10/09 03:46:04;;;;;;;11.10;8.88;;;15.20;99.90;;;;;;5062631;28;20427;-74
2023/10/09 03:48:35;;;;;;;10.98;9.05;;;15.20;99.90;;;;;;5063906;28;20428;-74
2023/10/09 03:51:08;;;;;;;9.45;8.55;;;15.20;99.90;;;;;;5063323;28;20422;-73
2023/10/09 03:53:37;;;;;;;11.70;9.50;;;15.10;99.90;;;;;;5048329;28;20463;-74
2023/10/09 03:56:11;;;;;;;11.70;8.90;;;15.10;99.90;;;;;;5059943;28;20932;-74
2023/10/09 03:58:39;;;;;;;9.70;8.70;;;15.10;99.90;;;;;;5064620;28;20419;-74
2023/10/09 04:01:09;;;;;;;13.00;9.63;;;15.10;99.90;;;;;;5063159;28;20549;-74
2023/10/09 04:03:38;;;;;;;10.10;9.00;;;15.10;99.90;;;;;;5058524;28;20443;-74
2023/10/09 04:06:08;;;;;;;9.85;8.85;;;15.20;99.90;;;;;;5094690;22;20423;-68
2023/10/09 04:08:35;;;;;;;9.48;8.48;;;15.10;99.90;;;;;;5115752;27;20428;-69
2023/10/09 04:11:04;;;;;;;12.20;9.40;;;15.10;99.90;;;;;;5118501;27;20442;-69
2023/10/09 04:13:35;;;;;;;12.35;8.93;;;15.10;99.90;;;;;;5122470;27;20477;-69
2023/10/09 04:16:26;;;;;;;11.13;9.50;;;15.10;99.90;;;;;;5114040;27;20436;-69
2023/10/09 04:18:52;;;;;;;10.90;9.80;;;15.10;99.90;;;;;;5123717;27;20880;-70
2023/10/09 04:21:33;;;;;;;10.40;9.30;;;15.10;99.90;;;;;;5122215;27;20431;-70
2023/10/09 04:24:09;;;;;;;11.45;9.50;;;15.20;99.90;;;;;;5126029;27;20858;-68
2023/10/09 04:26:37;;;;;;;10.82;9.30;;;15.10;99.90;;;;;;5125499;27;20402;-69
2023/10/09 04:29:05;;;;;;;11.73;9.40;;;15.10;99.90;;;;;;5131935;27;20415;-70
2023/10/09 04:31:37;;;;;;;10.10;8.90;;;15.20;99.90;;;;;;5125926;27;21019;-70
2023/10/09 04:34:28;;;;;;;12.25;9.50;;;15.10;99.90;;;;;;5125829;27;20437;-68
2023/10/09 04:37:00;;;;;;;10.40;9.20;;;15.20;99.90;;;;;;5132810;27;20421;-71
2023/10/09 04:39:37;;;;;;;10.38;8.90;;;15.10;99.90;;;;;;5132091;27;20455;-69
2023/10/09 04:45:19;;;;;;;9.10;8.02;;;15.10;99.90;;;;;;5122935;27;20475;-69
2023/10/09 04:47:57;;;;;;;10.25;8.45;;;15.10;99.90;;;;;;5126062;27;20421;-70
2023/10/09 04:53:24;;;;;;;9.32;8.30;;;15.10;99.90;;;;;;5118330;27;20423;-70
2023/10/09 04:55:57;;;;;;;10.05;8.70;;;15.20;99.90;;;;;;5124705;27;20449;-69
2023/10/09 04:58:26;;;;;;;9.65;7.70;;;15.20;99.90;;;;;;5129218;27;20418;-70
2023/10/09 05:01:12;;;;;;;9.77;8.30;;;15.20;99.90;;;;;;5124739;27;20459;-71
2023/10/09 05:03:44;;;;;;;10.00;8.10;;;15.20;99.90;;;;;;5113740;27;20423;-68
2023/10/09 05:06:42;;;;;;;9.37;8.13;;;15.20;99.90;;;;;;5124377;27;20517;-68
2023/10/09 05:09:09;;;;;;;9.35;8.27;;;15.30;99.90;;;;;;5123734;27;20635;-69
2023/10/09 05:11:53;;;;;;;9.52;7.95;;;15.30;99.90;;;;;;5123652;27;20505;-70
2023/10/09 05:14:26;;;;;;;8.88;7.97;;;15.30;99.90;;;;;;5142977;27;20509;-65
2023/10/09 05:17:01;;;;;;;8.95;8.05;;;15.30;99.90;;;;;;5144271;27;20492;-71
2023/10/09 05:19:41;;;;;;;9.43;8.30;;;15.30;99.90;;;;;;5129590;27;20438;-70
2023/10/09 05:22:16;;;;;;;8.93;7.80;;;15.30;99.90;;;;;;5125066;27;20548;-68
2023/10/09 05:24:44;;;;;;;10.60;8.10;;;15.30;99.90;;;;;;5126522;27;20446;-68
2023/10/09 05:27:18;;;;;;;9.02;7.57;;;15.30;99.90;;;;;;5130167;27;20818;-67
2023/10/09 05:29:59;;;;;;;10.18;8.57;;;15.30;99.90;;;;;;5118042;27;20844;-68
2023/10/09 05:32:29;;;;;;;9.80;8.23;;;15.30;99.90;;;;;;5122264;27;20463;-68
2023/10/09 05:35:07;;;;;;;8.50;7.70;;;15.30;99.90;;;;;;5137606;27;20419;-68
2023/10/09 05:37:43;;;;;;;9.80;7.70;;;15.30;99.90;;;;;;5144825;27;20399;-68
2023/10/09 05:40:22;;;;;;;8.25;7.30;;;15.30;99.90;;;;;;5130346;27;20885;-67
2023/10/09 05:42:59;;;;;;;7.90;7.10;;;15.30;99.90;;;;;;5123236;27;20434;-68
2023/10/09 05:51:12;;;;;;;8.13;7.32;;;15.30;99.90;;;;;;5125934;27;20772;-68
2023/10/09 06:04:49;;;;;;;8.85;7.25;;;15.40;99.90;;;;;;5122934;27;20427;-69
2023/10/09 06:07:23;;;;;;;8.18;7.32;;;15.40;99.90;;;;;;5118064;27;20432;-70
2023/10/09 06:09:52;;;;;;;10.02;7.90;;;15.40;99.90;;;;;;5120541;27;20499;-69
2023/10/09 06:12:49;;;;;;;8.45;7.65;;;15.40;99.90;;;;;;5120609;27;20461;-69
2023/10/09 06:15:50;;;;;;;10.10;7.38;;;15.40;99.90;;;;;;5124157;27;20429;-69
2023/10/09 06:18:32;;;;;;;8.87;7.93;;;15.50;99.90;;;;;;5126886;27;20426;-68
2023/10/09 06:21:39;;;;;;;9.43;7.80;;;15.50;99.90;;;;;;5116444;27;20419;-68
2023/10/09 06:24:09;;;;;;;8.85;7.95;;;15.50;99.90;;;;;;5137722;27;20414;-67
2023/10/09 06:26:41;;;;;;;10.70;7.80;;;15.60;99.90;;;;;;5130887;27;22808;-68
2023/10/09 06:29:30;;;;;;;8.98;7.32;;;15.60;99.90;;;;;;5130537;27;20414;-68
2023/10/09 06:31:59;;;;;;;10.77;8.77;;;15.60;99.90;;;;;;5123694;27;20426;-71
2023/10/09 06:34:35;;;;;;;9.32;8.43;;;15.70;99.90;;;;;;5127895;27;20433;-68
2023/10/09 06:37:07;;;;;;;9.50;8.50;;;15.70;99.90;;;;;;5124661;27;20427;-69
2023/10/09 06:45:06;;;;;;;10.93;7.50;;;15.80;99.90;;;;;;5127804;27;20477;-69
2023/10/09 06:47:40;;;;;;;9.43;7.27;;;15.80;99.90;;;;;;5127269;27;20440;-68
2023/10/09 06:50:25;;;;;;;8.43;7.35;;;15.80;99.90;;;;;;5119279;27;20444;-70
2023/10/09 06:52:58;;;;;;;8.02;6.95;;;15.90;99.90;;;;;;5127514;27;20992;-69
2023/10/09 06:55:33;;;;;;;8.85;6.72;;;16.00;99.90;;;;;;5120986;27;20456;-69
2023/10/09 06:58:01;;;;;;;8.45;7.22;;;16.00;99.90;;;;;;5126333;27;20422;-70
2023/10/09 07:03:12;;;;;;;8.07;7.10;;;16.20;99.90;;;;;;5124321;27;20405;-69
2023/10/09 07:06:00;;;;;;;9.98;6.97;;;16.30;99.90;;;;;;5115406;27;20432;-70
2023/10/09 07:08:31;;;;;;;10.45;7.40;;;16.30;99.90;;;;;;5121217;27;20420;-69
2023/10/09 07:11:20;;;;;;;9.40;8.40;;;16.40;99.90;;;;;;5124954;27;20437;-70
2023/10/09 07:13:53;;;;;;;10.55;7.68;;;16.50;99.90;;;;;;5123383;27;20402;-68
2023/10/09 07:16:28;;;;;;;8.07;6.75;;;16.50;99.90;;;;;;5124325;27;20505;-69
2023/10/09 07:18:55;;;;;;;7.75;6.10;;;16.60;99.90;;;;;;5129951;27;20420;-69
2023/10/09 07:21:28;;;;;;;9.30;6.80;;;16.70;99.90;;;;;;5128886;27;20489;-69
2023/10/09 07:23:58;;;;;;;9.00;6.90;;;16.80;99.90;;;;;;5120924;27;20963;-70
2023/10/09 07:26:36;;;;;;;7.77;6.97;;;16.80;99.90;;;;;;5121631;27;20454;-68
2023/10/09 07:29:21;;;;;;;9.20;7.13;;;16.90;99.90;;;;;;5117708;27;20414;-68
2023/10/09 07:31:56;;;;;;;9.50;6.32;;;16.90;99.90;;;;;;5120562;27;20429;-67
2023/10/09 07:34:52;;;;;;;8.03;6.50;;;17.00;99.90;;;;;;5127268;27;20422;-70
2023/10/09 07:37:22;;;;;;;7.43;6.30;;;17.00;99.90;;;;;;5119980;27;20422;-69
2023/10/09 07:39:57;;;;;;;8.60;6.53;;;17.10;99.90;;;;;;5129513;27;20423;-69
2023/10/09 07:42:44;;;;;;;9.10;7.28;;;17.20;99.90;;;;;;5120120;27;20426;-70
2023/10/09 07:45:41;;;;;;;7.85;6.68;;;17.30;99.90;;;;;;5121154;27;20424;-69
2023/10/09 07:48:04;;;;;;;8.68;6.95;;;17.40;99.90;;;;;;5127533;27;20921;-70
2023/10/09 07:50:40;;;;;;;7.97;7.18;;;17.50;99.90;;;;;;5120687;27;20413;-68
2023/10/09 07:53:18;;;;;;;8.60;6.70;;;17.60;99.90;;;;;;5111808;27;20479;-69
2023/10/09 07:55:54;;;;;;;7.75;6.95;;;17.60;99.90;;;;;;5115719;27;20487;-68
2023/10/09 07:58:24;;;;;;;9.00;6.40;;;17.80;99.90;;;;;;5119052;27;20635;-69
2023/10/09 08:03:38;;;;;;;9.63;6.40;;;17.80;99.90;;;;;;5123179;27;20406;-69
2023/10/09 08:09:17;;;;;;;8.23;6.40;;;17.90;99.90;;;;;;5120543;27;20410;-69
2023/10/09 08:12:13;;;;;;;10.48;6.20;;;17.90;99.90;;;;;;5112064;27;20425;-68
2023/10/09 08:14:45;;;;;;;7.78;6.70;;;17.90;99.90;;;;;;5123302;27;20506;-69
2023/10/09 08:17:15;;;;;;;7.75;5.78;;;17.90;99.40;;;;;;5123427;27;20445;-70
2023/10/09 08:19:53;;;;;;;7.60;6.70;;;17.90;99.60;;;;;;5117585;27;20794;-70
2023/10/09 08:25:07;;;;;;;7.82;6.60;;;17.90;99.10;;;;;;5120503;27;20440;-70
2023/10/09 08:30:48;;;;;;;7.40;6.50;;;18.00;98.70;;;;;;5109899;27;20446;-66
2023/10/09 08:36:04;;;;;;;8.63;6.57;;;18.10;99.40;;;;;;5122012;27;20935;-69
2023/10/09 08:38:34;;;;;;;8.53;6.40;;;18.20;98.90;;;;;;5119590;27;20501;-68
2023/10/09 08:41:15;;;;;;;9.48;6.65;;;18.20;99.10;;;;;;5116398;27;20457;-67
2023/10/09 08:43:49;;;;;;;7.85;5.90;;;18.20;98.90;;;;;;5126330;27;20788;-67
2023/10/09 08:46:18;;;;;;;8.38;6.60;;;18.20;98.80;;;;;;5131998;27;20443;-69
2023/10/09 08:48:47;;;;;;;9.43;6.47;;;18.30;98.80;;;;;;5121557;27;20420;-69
2023/10/09 08:51:14;;;;;;;6.97;5.82;;;18.20;98.50;;;;;;5118193;27;20411;-69
2023/10/09 08:53:42;;;;;;;8.90;6.75;;;18.30;98.70;;;;;;5122529;27;20521;-68
2023/10/09 08:56:10;;;;;;;10.60;6.90;;;18.30;98.20;;;;;;5118408;27;20603;-68
2023/10/09 08:58:38;;;;;;;8.38;6.70;;;18.40;98.30;;;;;;5116438;27;20437;-67
2023/10/09 09:01:05;;;;;;;8.48;5.70;;;18.40;96.80;;;;;;5121988;27;20450;-70
2023/10/09 09:03:39;;;;;;;9.15;6.50;;;18.50;97.00;;;;;;5130824;27;20407;-69
2023/10/09 09:06:07;;;;;;;8.13;6.70;;;18.60;96.20;;;;;;5125418;27;20427;-67
2023/10/09 09:08:36;;;;;;;7.00;5.93;;;18.70;96.30;;;;;;5142850;27;20913;-70
2023/10/09 09:11:11;;;;;;;7.45;5.90;;;18.80;96.20;;;;;;5146868;27;20421;-67
2023/10/09 09:13:41;;;;;;;6.43;5.80;;;18.90;94.80;;;;;;5138629;27;20423;-66
2023/10/09 09:16:15;;;;;;;8.25;5.72;;;18.90;95.30;;;;;;5147652;27;20427;-67
2023/10/09 09:18:56;;;;;;;6.90;5.80;;;18.90;94.40;;;;;;5133835;27;20418;-67
2023/10/09 09:21:24;;;;;;;9.75;6.25;;;18.90;94.90;;;;;;5129673;27;20414;-68
2023/10/09 09:23:56;;;;;;;8.25;6.18;;;18.80;94.50;;;;;;5127270;27;20439;-68
2023/10/09 09:26:37;;;;;;;6.70;6.00;;;18.90;94.90;;;;;;5131208;27;20762;-69
2023/10/09 09:29:05;;;;;;;9.07;6.13;;;19.00;95.30;;;;;;5126576;27;20503;-69
2023/10/09 09:31:37;;;;;;;7.00;6.05;;;18.90;95.10;;;;;;5124510;27;20456;-69
2023/10/09 09:34:12;;;;;;;7.20;6.30;;;19.00;94.10;;;;;;5121254;27;20437;-68
2023/10/09 09:36:53;;;;;;;8.30;6.10;;;19.10;94.80;;;;;;5124814;27;20503;-70
2023/10/09 09:39:27;;;;;;;7.10;5.70;;;19.20;93.50;;;;;;5124733;27;20452;-68
2023/10/09 09:42:03;;;;;;;9.87;6.07;;;19.30;93.50;;;;;;5121495;27;20800;-66
2023/10/09 09:44:33;;;;;;;8.52;5.55;;;19.40;93.90;;;;;;5121519;27;20424;-67
2023/10/09 09:47:01;;;;;;;7.15;5.70;;;19.50;93.60;;;;;;5124963;27;20518;-67
2023/10/09 09:49:31;;;;;;;6.68;5.40;;;19.60;92.80;;;;;;5122628;27;20983;-67
2023/10/09 09:52:02;;;;;;;9.45;5.70;;;19.70;92.90;;;;;;5136522;27;20423;-68
2023/10/09 09:54:33;;;;;;;6.07;5.30;;;19.90;91.40;;;;;;5123042;27;20429;-64
2023/10/09 09:57:08;;;;;;;7.20;5.22;;;19.90;91.40;;;;;;5131948;27;20849;-66
2023/10/09 09:59:49;;;;;;;9.20;5.50;;;20.00;90.80;;;;;;5123998;27;20434;-66
2023/10/09 10:02:21;;;;;;;7.07;5.30;;;20.10;91.40;;;;;;5121136;27;20522;-65
2023/10/09 10:04:52;;;;;;;7.65;5.00;;;20.30;89.40;;;;;;5123177;27;20427;-66
2023/10/09 10:07:22;;;;;;;7.10;5.38;;;20.60;89.30;;;;;;5122838;27;20923;-66
2023/10/09 10:09:54;;;;;;;6.28;5.00;;;20.90;86.70;;;;;;5123138;27;20805;-66
2023/10/09 10:13:00;;;;;;;5.30;4.78;;;21.10;85.90;;;;;;5117222;27;21246;-65
2023/10/09 10:15:56;;;;;;;7.50;4.70;;;21.20;85.60;;;;;;5120210;27;20462;-65
2023/10/09 10:18:23;;;;;;;7.35;4.90;;;21.40;84.50;;;;;;5117262;27;20424;-65
2023/10/09 10:21:15;;;;;;;6.10;4.70;;;21.60;81.70;;;;;;5122774;27;20418;-66
2023/10/09 10:23:47;;;;;;;6.40;4.78;;;21.80;81.10;;;;;;5122503;27;20510;-71
2023/10/09 10:26:26;;;;;;;6.13;5.50;;;22.10;81.60;;;;;;5118243;27;20482;-66
2023/10/09 10:29:22;;;;;;;7.45;5.55;;;22.30;76.10;;;;;;5126926;27;20498;-66
2023/10/09 10:31:56;;;;;;;6.27;5.17;;;22.20;77.50;;;;;;5124324;27;20494;-67
2023/10/09 10:34:24;;;;;;;6.35;4.60;;;22.10;77.50;;;;;;5122730;27;20430;-66
2023/10/09 10:36:58;;;;;;;8.05;4.90;;;22.10;76.80;;;;;;5121908;27;20430;-66
2023/10/09 10:42:09;;;;;;;5.50;4.47;;;22.20;75.40;;;;;;5119260;27;20422;-67
2023/10/09 10:44:41;;;;;;;4.90;4.40;;;22.10;77.80;;;;;;5127573;27;20504;-67
2023/10/09 10:47:22;;;;;;;5.70;4.82;;;22.20;77.30;;;;;;5128359;27;20927;-68
2023/10/09 10:49:50;;;;;;;6.15;4.90;;;22.30;77.50;;;;;;5117431;27;20454;-66
2023/10/09 10:52:22;;;;;;;4.68;3.83;;;22.40;77.00;;;;;;5110013;27;20427;-68
2023/10/09 10:57:53;;;;;;;6.32;4.72;;;22.50;73.80;;;;;;5116837;27;20767;-66
2023/10/09 11:03:13;;;;;;;5.40;4.10;;;22.50;74.20;;;;;;5123844;27;20531;-64
2023/10/09 11:05:42;;;;;;;6.18;4.35;;;22.50;74.40;;;;;;5127661;27;20442;-65
2023/10/09 11:08:10;;;;;;;6.78;4.47;;;22.50;74.20;;;;;;5119145;27;20448;-65
2023/10/09 11:10:49;;;;;;;7.03;4.40;;;22.50;74.00;;;;;;5124286;27;20469;-67
2023/10/09 11:13:33;;;;;;;6.22;3.90;;;22.50;73.00;;;;;;5125442;27;20424;-66
2023/10/09 11:18:45;;;;;;;11.98;4.90;;;22.60;74.90;;;;;;5126609;27;20549;-67
2023/10/09 11:21:31;;;;;;;5.63;4.10;;;22.80;75.10;;;;;;5124888;27;20428;-67
2023/10/09 11:24:23;;;;;;;7.00;4.20;;;22.90;71.80;;;;;;5114557;27;20430;-66
2023/10/09 11:26:53;;;;;;;4.72;3.83;;;23.00;71.80;;;;;;5121892;27;20411;-67
2023/10/09 11:29:29;;;;;;;5.78;4.13;;;23.20;72.70;;;;;;5125304;27;20424;-64
2023/10/09 11:32:03;;;;;;;6.10;3.80;;;23.20;71.40;;;;;;5116184;27;20429;-67
2023/10/09 11:34:31;;;;;;;6.18;4.60;;;23.30;67.40;;;;;;5124809;27;20472;-68
2023/10/09 11:37:01;;;;;;;5.18;3.90;;;23.40;63.20;;;;;;5125361;27;20559;-67
2023/10/09 11:39:34;;;;;;;5.00;4.10;;;23.40;66.00;;;;;;5121644;27;20415;-69
2023/10/09 11:42:04;;;;;;;6.68;4.38;;;23.50;63.30;;;;;;5119890;27;20504;-68
2023/10/09 11:44:39;;;;;;;4.95;3.95;;;23.50;64.00;;;;;;5126068;28;20425;-70
2023/10/09 11:47:22;;;;;;;5.32;4.00;;;23.50;62.60;;;;;;5114709;28;20465;-69
2023/10/09 11:49:56;;;;;;;4.50;4.00;;;23.50;59.90;;;;;;5126379;27;20561;-67
2023/10/09 11:52:38;;;;;;;6.38;4.20;;;23.40;61.30;;;;;;5127075;27;20552;-68
2023/10/09 11:55:06;;;;;;;5.50;4.00;;;23.40;59.70;;;;;;5127800;27;20999;-64
2023/10/09 11:57:35;;;;;;;6.15;3.83;;;23.40;63.00;;;;;;5119207;27;20428;-67
2023/10/09 12:00:10;;;;;;;6.97;4.03;;;23.30;62.30;;;;;;5123634;27;20438;-67
2023/10/09 12:02:43;;;;;;;6.50;4.05;;;23.30;62.80;;;;;;5121787;27;20774;-65
2023/10/09 12:05:16;;;;;;;5.87;4.20;;;23.30;63.10;;;;;;5128250;28;20430;-66
2023/10/09 12:07:44;;;;;;;6.30;4.00;;;23.40;61.40;;;;;;5116114;27;20420;-66
2023/10/09 12:10:13;;;;;;;7.90;4.18;;;23.30;63.80;;;;;;5126802;27;20398;-66
2023/10/09 12:12:46;;;;;;;5.60;3.75;;;23.30;63.80;;;;;;5118663;27;20465;-67
2023/10/09 12:15:17;;;;;;;5.72;4.25;;;23.40;63.30;;;;;;5127334;28;20479;-64
2023/10/09 12:17:44;;;;;;;4.35;3.95;;;23.40;64.40;;;;;;5120146;27;20911;-66
2023/10/09 12:20:29;;;;;;;7.15;4.13;;;23.50;62.10;;;;;;5127477;27;20436;-66
2023/10/09 12:22:58;;;;;;;4.90;3.70;;;23.50;59.90;;;;;;5126567;27;20437;-65
2023/10/09 12:25:25;;;;;;;4.72;3.90;;;23.40;62.50;;;;;;5123506;27;20418;-66
2023/10/09 12:27:57;;;;;;;5.18;4.07;;;23.30;63.20;;;;;;5126198;27;20893;-66
2023/10/09 12:30:27;;;;;;;5.28;4.10;;;23.30;64.60;;;;;;5128785;27;21124;-65
2023/10/09 12:32:54;;;;;;;5.25;3.90;;;23.40;65.10;;;;;;5129527;27;20439;-65
2023/10/09 12:35:24;;;;;;;5.60;3.97;;;23.50;65.60;;;;;;5115806;27;20445;-66
2023/10/09 12:37:51;;;;;;;5.88;4.40;;;23.50;65.70;;;;;;5121952;27;20452;-67
2023/10/09 12:40:23;;;;;;;5.82;4.30;;;23.60;65.10;;;;;;5136790;27;20417;-67
2023/10/09 12:42:53;;;;;;;6.03;4.40;;;23.60;65.60;;;;;;5117550;27;20773;-67
2023/10/09 12:45:25;;;;;;;6.50;4.45;;;23.60;65.00;;;;;;5124741;27;20421;-65
2023/10/09 12:47:53;;;;;;;5.38;4.50;;;23.60;65.60;;;;;;5125051;27;20421;-68
2023/10/09 12:50:27;;;;;;;6.03;4.40;;;23.50;65.80;;;;;;5121199;27;20465;-68
2023/10/09 12:52:55;;;;;;;6.28;4.78;;;23.40;65.70;;;;;;5122544;27;20586;-69
2023/10/09 12:55:22;;;;;;;6.68;4.82;;;23.40;65.60;;;;;;5126031;27;20432;-65
2023/10/09 12:57:49;;;;;;;6.55;4.82;;;23.30;65.20;;;;;;5123869;27;20840;-68
2023/10/09 13:00:25;;;;;;;6.55;4.43;;;23.20;65.50;;;;;;5119479;27;20435;-66
2023/10/09 13:02:52;;;;;;;6.13;4.72;;;23.20;65.50;;;;;;5143715;27;20411;-67
2023/10/09 13:05:26;;;;;;;6.57;4.68;;;23.20;66.30;;;;;;5147851;27;20417;-67
2023/10/09 13:07:52;;;;;;;6.93;4.60;;;23.10;66.40;;;;;;5137284;27;20984;-67
2023/10/09 13:10:19;;;;;;;6.63;4.90;;;23.10;66.50;;;;;;5132049;27;20407;-67
2023/10/09 13:12:46;;;;;;;6.88;4.90;;;23.00;65.60;;;;;;5122551;27;20422;-67
2023/10/09 13:15:13;;;;;;;8.02;4.82;;;23.00;66.40;;;;;;5128312;27;20422;-68
2023/10/09 13:17:42;;;;;;;6.40;4.37;;;22.90;67.40;;;;;;5123498;27;20969;-68
2023/10/09 13:20:13;;;;;;;7.30;4.90;;;22.90;67.00;;;;;;5125664;27;20471;-69
2023/10/09 13:22:40;;;;;;;6.65;4.90;;;22.80;67.30;;;;;;5128885;27;20418;-70
2023/10/09 13:25:14;;;;;;;8.00;4.70;;;22.80;67.50;;;;;;5118887;27;20457;-70
2023/10/09 13:27:41;;;;;;;7.65;4.97;;;22.70;68.00;;;;;;5124693;27;20439;-68
2023/10/09 13:30:21;;;;;;;6.65;4.20;;;22.70;68.60;;;;;;5122931;27;20424;-69
2023/10/09 13:32:49;;;;;;;6.60;4.30;;;22.70;67.90;;;;;;5124192;27;20459;-68
2023/10/09 13:35:18;;;;;;;6.77;4.13;;;22.70;68.50;;;;;;5120340;27;20459;-68
2023/10/09 13:37:53;;;;;;;7.80;4.75;;;22.70;68.20;;;;;;5121554;27;20471;-66
2023/10/09 13:40:26;;;;;;;6.90;4.30;;;22.70;68.40;;;;;;5125259;27;20412;-66
2023/10/09 13:42:58;;;;;;;6.47;4.60;;;22.60;68.50;;;;;;5115658;27;20434;-67
2023/10/09 13:45:28;;;;;;;7.40;4.22;;;22.60;67.90;;;;;;5129942;27;20426;-65
2023/10/09 13:47:57;;;;;;;6.55;4.20;;;22.70;67.90;;;;;;5128284;27;20426;-66
2023/10/09 13:50:28;;;;;;;7.05;4.70;;;22.70;69.40;;;;;;5127616;27;20414;-66
2023/10/09 13:52:56;;;;;;;7.80;4.43;;;22.80;67.20;;;;;;5125509;27;21010;-66
2023/10/09 13:55:31;;;;;;;7.25;5.25;;;22.80;67.60;;;;;;5124357;27;20422;-65
2023/10/09 13:57:58;;;;;;;5.75;4.90;;;22.80;67.70;;;;;;5126948;27;20438;-66
2023/10/09 14:00:33;;;;;;;6.68;4.55;;;22.80;66.80;;;;;;5124667;27;20427;-67
2023/10/09 14:03:11;;;;;;;6.50;4.38;;;22.80;67.00;;;;;;5128452;27;20449;-66
2023/10/09 14:05:51;;;;;;;5.47;4.63;;;22.70;67.50;;;;;;5133470;27;20411;-65
2023/10/09 14:08:21;;;;;;;5.20;4.70;;;22.70;68.20;;;;;;5115910;27;20703;-67